Hubbard, Oregon
Current Conditions -  °F | °C
As of 2:33 PM on Thursday 23 Oct 2014 (Local Time) from KUAO Reporting Station
Thunderstorm Thunderstorm  
Wind Chill: 52°   Ceiling: 4000
Heat Index: 52°   Visibility: 10mi
Dew Point: 50°   Wind: 5mph
Humidity: 93%   Direction: 210°SSW
Pressure: 29.93"   Gusts: NA
Location:  45.18°N, 122.81°W
Report Text: KUAO 232133Z AUTO 21004KT 10SM VCTS -RA FEW022 BKN040 OVC110 11/10 A2993 RMK AO2 LTG DSNT NE RAB08 P0015 T01110100
Loading
Personal Weather Stations






























Interactive Weather Map
Tropical Storm Tracking
New forecast layout! Learn more

10-Day Weather Forecast

Advertisements
Track Severe Weather on mobile